PWSweather.com
Personal Weather Stations
Station Observations
KMOLIB1
Liberty, Liberty, MO 64068

LibertyLiberty, MO 64068

Lat: 39.24, Lon: -94.45

Elevation: 866

Station Type:

High Low Average
Temperature 85.0°F29.4°C 64.0°F17.8°C 73.4°F23.0°C
Dew Point 65.5°F18.6°C 42.8°F6.0°C 54.3°F12.4°C
Winds 18.0 mph 29.0 kmh Calm Calm 3.0 mph SSE4.8 kmh SSE
Wind Gusts 19.0 mph30.6 kmh 3.0 mph4.8 kmh 12.0 mph19.3 kmh
Humidity 57% 46% 51%
Pressure 210.57 in7130.7 mb 210.46 in7127.0 mb -
Precipitation 0.00 in0.0 mm - -
Hour Temp Dew Point Humidity Winds Wind Gusts Pressure Precip Precip Rate Daily Precip Total
12:00 AM 67.0°F19.4°C 48.2°F9.0°C 51% 1.0 mph SW1.6 kmh SW 1.0 mph1.6 kmh 210.53 in7129.4 mb 0.00 in0.0 mm 0.00 in0.0 mm 0.00 in0.0 mm
12:05 AM 67.0°F19.4°C 48.2°F9.0°C 51% Calm Calm 6.0 mph9.7 kmh 210.53 in7129.4 mb 0.00 in0.0 mm 0.00 in0.0 mm 0.00 in0.0 mm
12:10 AM 67.0°F19.4°C 48.2°F9.0°C 51% 2.0 mph E3.2 kmh E 6.0 mph9.7 kmh 210.53 in7129.4 mb 0.00 in0.0 mm 0.00 in0.0 mm 0.00 in0.0 mm
12:15 AM 67.0°F19.4°C 48.2°F9.0°C 51% 1.0 mph SE1.6 kmh SE 6.0 mph9.7 kmh 210.53 in7129.4 mb 0.00 in0.0 mm 0.00 in0.0 mm 0.00 in0.0 mm
12:20 AM 66.0°F18.9°C 47.3°F8.5°C 51% Calm Calm 6.0 mph9.7 kmh 210.53 in7129.4 mb 0.00 in0.0 mm 0.00 in0.0 mm 0.00 in0.0 mm
12:25 AM 66.0°F18.9°C 47.3°F8.5°C 51% Calm Calm 6.0 mph9.7 kmh 210.54 in7129.7 mb 0.00 in0.0 mm 0.00 in0.0 mm 0.00 in0.0 mm
12:30 AM 66.0°F18.9°C 46.8°F8.2°C 50% 1.0 mph ESE1.6 kmh ESE 6.0 mph9.7 kmh 210.54 in7129.7 mb 0.00 in0.0 mm 0.00 in0.0 mm 0.00 in0.0 mm
12:35 AM 66.0°F18.9°C 47.3°F8.5°C 51% Calm Calm 6.0 mph9.7 kmh 210.53 in7129.4 mb 0.00 in0.0 mm 0.00 in0.0 mm 0.00 in0.0 mm
12:40 AM 66.0°F18.9°C 46.8°F8.2°C 50% 2.0 mph E3.2 kmh E 6.0 mph9.7 kmh 210.53 in7129.4 mb 0.00 in0.0 mm 0.00 in0.0 mm 0.00 in0.0 mm
12:45 AM 66.0°F18.9°C 47.3°F8.5°C 51% 1.0 mph WSW1.6 kmh WSW 6.0 mph9.7 kmh 210.53 in7129.4 mb 0.00 in0.0 mm 0.00 in0.0 mm 0.00 in0.0 mm
12:50 AM 66.0°F18.9°C 46.8°F8.2°C 50% Calm Calm 6.0 mph9.7 kmh 210.53 in7129.4 mb 0.00 in0.0 mm 0.00 in0.0 mm 0.00 in0.0 mm
12:55 AM 66.0°F18.9°C 47.3°F8.5°C 51% Calm Calm 6.0 mph9.7 kmh 210.53 in7129.4 mb 0.00 in0.0 mm 0.00 in0.0 mm 0.00 in0.0 mm
01:00 AM 66.0°F18.9°C 46.8°F8.2°C 50% 1.0 mph ESE1.6 kmh ESE 6.0 mph9.7 kmh 210.53 in7129.4 mb 0.00 in0.0 mm 0.00 in0.0 mm 0.00 in0.0 mm
01:05 AM 66.0°F18.9°C 46.8°F8.2°C 50% 1.0 mph SE1.6 kmh SE 6.0 mph9.7 kmh 210.53 in7129.4 mb 0.00 in0.0 mm 0.00 in0.0 mm 0.00 in0.0 mm
01:10 AM 66.0°F18.9°C 46.8°F8.2°C 50% Calm Calm 6.0 mph9.7 kmh 210.53 in7129.4 mb 0.00 in0.0 mm 0.00 in0.0 mm 0.00 in0.0 mm
01:15 AM 66.0°F18.9°C 47.3°F8.5°C 51% 1.0 mph ESE1.6 kmh ESE 6.0 mph9.7 kmh 210.54 in7129.7 mb 0.00 in0.0 mm 0.00 in0.0 mm 0.00 in0.0 mm
01:20 AM 66.0°F18.9°C 46.8°F8.2°C 50% Calm Calm 6.0 mph9.7 kmh 210.54 in7129.7 mb 0.00 in0.0 mm 0.00 in0.0 mm 0.00 in0.0 mm
01:25 AM 66.0°F18.9°C 47.3°F8.5°C 51% 1.0 mph E1.6 kmh E 6.0 mph9.7 kmh 210.54 in7129.7 mb 0.00 in0.0 mm 0.00 in0.0 mm 0.00 in0.0 mm
01:30 AM 66.0°F18.9°C 46.8°F8.2°C 50% Calm Calm 7.0 mph11.3 kmh 210.54 in7129.7 mb 0.00 in0.0 mm 0.00 in0.0 mm 0.00 in0.0 mm
01:35 AM 66.0°F18.9°C 47.3°F8.5°C 51% 2.0 mph NE3.2 kmh NE 7.0 mph11.3 kmh 210.54 in7129.7 mb 0.00 in0.0 mm 0.00 in0.0 mm 0.00 in0.0 mm
01:40 AM 66.0°F18.9°C 46.8°F8.2°C 50% Calm Calm 7.0 mph11.3 kmh 210.54 in7129.7 mb 0.00 in0.0 mm 0.00 in0.0 mm 0.00 in0.0 mm
01:45 AM 66.0°F18.9°C 46.2°F7.9°C 49% 1.0 mph SE1.6 kmh SE 7.0 mph11.3 kmh 210.54 in7129.7 mb 0.00 in0.0 mm 0.00 in0.0 mm 0.00 in0.0 mm
01:50 AM 66.0°F18.9°C 46.2°F7.9°C 49% 2.0 mph ESE3.2 kmh ESE 7.0 mph11.3 kmh 210.54 in7129.7 mb 0.00 in0.0 mm 0.00 in0.0 mm 0.00 in0.0 mm
01:55 AM 66.0°F18.9°C 47.3°F8.5°C 51% 1.0 mph S1.6 kmh S 7.0 mph11.3 kmh 210.54 in7129.7 mb 0.00 in0.0 mm 0.00 in0.0 mm 0.00 in0.0 mm
02:00 AM 65.0°F18.3°C 45.9°F7.7°C 50% Calm Calm 7.0 mph11.3 kmh 210.54 in7129.7 mb 0.00 in0.0 mm 0.00 in0.0 mm 0.00 in0.0 mm
02:05 AM 66.0°F18.9°C 47.3°F8.5°C 51% 1.0 mph ESE1.6 kmh ESE 7.0 mph11.3 kmh 210.54 in7129.7 mb 0.00 in0.0 mm 0.00 in0.0 mm 0.00 in0.0 mm
02:10 AM 65.0°F18.3°C 45.9°F7.7°C 50% Calm Calm 7.0 mph11.3 kmh 210.54 in7129.7 mb 0.00 in0.0 mm 0.00 in0.0 mm 0.00 in0.0 mm
02:15 AM 65.0°F18.3°C 46.4°F8.0°C 51% 1.0 mph E1.6 kmh E 7.0 mph11.3 kmh 210.54 in7129.7 mb 0.00 in0.0 mm 0.00 in0.0 mm 0.00 in0.0 mm
02:20 AM 65.0°F18.3°C 45.9°F7.7°C 50% Calm Calm 7.0 mph11.3 kmh 210.54 in7129.7 mb 0.00 in0.0 mm 0.00 in0.0 mm 0.00 in0.0 mm
02:25 AM 65.0°F18.3°C 46.4°F8.0°C 51% Calm Calm 7.0 mph11.3 kmh 210.54 in7129.7 mb 0.00 in0.0 mm 0.00 in0.0 mm 0.00 in0.0 mm
02:30 AM 65.0°F18.3°C 45.9°F7.7°C 50% Calm Calm 7.0 mph11.3 kmh 210.54 in7129.7 mb 0.00 in0.0 mm 0.00 in0.0 mm 0.00 in0.0 mm
02:35 AM 65.0°F18.3°C 46.4°F8.0°C 51% Calm Calm 7.0 mph11.3 kmh 210.54 in7129.7 mb 0.00 in0.0 mm 0.00 in0.0 mm 0.00 in0.0 mm
02:40 AM 65.0°F18.3°C 45.9°F7.7°C 50% Calm Calm 7.0 mph11.3 kmh 210.54 in7129.7 mb 0.00 in0.0 mm 0.00 in0.0 mm 0.00 in0.0 mm
02:45 AM 65.0°F18.3°C 46.4°F8.0°C 51% Calm Calm 7.0 mph11.3 kmh 210.54 in7129.7 mb 0.00 in0.0 mm 0.00 in0.0 mm 0.00 in0.0 mm
02:50 AM 65.0°F18.3°C 45.9°F7.7°C 50% 1.0 mph S1.6 kmh S 7.0 mph11.3 kmh 210.54 in7129.7 mb 0.00 in0.0 mm 0.00 in0.0 mm 0.00 in0.0 mm
02:55 AM 65.0°F18.3°C 46.4°F8.0°C 51% Calm Calm 7.0 mph11.3 kmh 210.54 in7129.7 mb 0.00 in0.0 mm 0.00 in0.0 mm 0.00 in0.0 mm
03:00 AM 65.0°F18.3°C 45.9°F7.7°C 50% 1.0 mph SE1.6 kmh SE 7.0 mph11.3 kmh 210.54 in7129.7 mb 0.00 in0.0 mm 0.00 in0.0 mm 0.00 in0.0 mm
03:05 AM 65.0°F18.3°C 46.4°F8.0°C 51% Calm Calm 7.0 mph11.3 kmh 210.54 in7129.7 mb 0.00 in0.0 mm 0.00 in0.0 mm 0.00 in0.0 mm
03:10 AM 65.0°F18.3°C 45.3°F7.4°C 49% 1.0 mph ESE1.6 kmh ESE 7.0 mph11.3 kmh 210.54 in7129.7 mb 0.00 in0.0 mm 0.00 in0.0 mm 0.00 in0.0 mm
03:15 AM 65.0°F18.3°C 46.4°F8.0°C 51% Calm Calm 7.0 mph11.3 kmh 210.54 in7129.7 mb 0.00 in0.0 mm 0.00 in0.0 mm 0.00 in0.0 mm
03:20 AM 65.0°F18.3°C 45.9°F7.7°C 50% 1.0 mph SSE1.6 kmh SSE 7.0 mph11.3 kmh 210.54 in7129.7 mb 0.00 in0.0 mm 0.00 in0.0 mm 0.00 in0.0 mm
03:25 AM 65.0°F18.3°C 45.9°F7.7°C 50% Calm Calm 7.0 mph11.3 kmh 210.53 in7129.4 mb 0.00 in0.0 mm 0.00 in0.0 mm 0.00 in0.0 mm
03:30 AM 65.0°F18.3°C 45.3°F7.4°C 49% Calm Calm 7.0 mph11.3 kmh 210.53 in7129.4 mb 0.00 in0.0 mm 0.00 in0.0 mm 0.00 in0.0 mm
03:35 AM 65.0°F18.3°C 46.4°F8.0°C 51% 1.0 mph ESE1.6 kmh ESE 7.0 mph11.3 kmh 210.53 in7129.4 mb 0.00 in0.0 mm 0.00 in0.0 mm 0.00 in0.0 mm
03:40 AM 65.0°F18.3°C 45.3°F7.4°C 49% Calm Calm 7.0 mph11.3 kmh 210.53 in7129.4 mb 0.00 in0.0 mm 0.00 in0.0 mm 0.00 in0.0 mm
03:45 AM 65.0°F18.3°C 45.9°F7.7°C 50% Calm Calm 7.0 mph11.3 kmh 210.53 in7129.4 mb 0.00 in0.0 mm 0.00 in0.0 mm 0.00 in0.0 mm
03:50 AM 65.0°F18.3°C 45.3°F7.4°C 49% 3.0 mph SE4.8 kmh SE 7.0 mph11.3 kmh 210.53 in7129.4 mb 0.00 in0.0 mm 0.00 in0.0 mm 0.00 in0.0 mm
03:55 AM 65.0°F18.3°C 46.4°F8.0°C 51% Calm Calm 7.0 mph11.3 kmh 210.53 in7129.4 mb 0.00 in0.0 mm 0.00 in0.0 mm 0.00 in0.0 mm
04:00 AM 65.0°F18.3°C 45.3°F7.4°C 49% 1.0 mph E1.6 kmh E 7.0 mph11.3 kmh 210.53 in7129.4 mb 0.00 in0.0 mm 0.00 in0.0 mm 0.00 in0.0 mm
04:05 AM 65.0°F18.3°C 46.4°F8.0°C 51% 1.0 mph SE1.6 kmh SE 7.0 mph11.3 kmh 210.53 in7129.4 mb 0.00 in0.0 mm 0.00 in0.0 mm 0.00 in0.0 mm
04:10 AM 65.0°F18.3°C 44.8°F7.1°C 48% 1.0 mph ESE1.6 kmh ESE 7.0 mph11.3 kmh 210.53 in7129.4 mb 0.00 in0.0 mm 0.00 in0.0 mm 0.00 in0.0 mm
04:15 AM 65.0°F18.3°C 46.4°F8.0°C 51% 1.0 mph SE1.6 kmh SE 7.0 mph11.3 kmh 210.53 in7129.4 mb 0.00 in0.0 mm 0.00 in0.0 mm 0.00 in0.0 mm
04:20 AM 65.0°F18.3°C 45.9°F7.7°C 50% 2.0 mph SE3.2 kmh SE 7.0 mph11.3 kmh 210.53 in7129.4 mb 0.00 in0.0 mm 0.00 in0.0 mm 0.00 in0.0 mm
04:25 AM 65.0°F18.3°C 46.4°F8.0°C 51% 1.0 mph SSE1.6 kmh SSE 7.0 mph11.3 kmh 210.53 in7129.4 mb 0.00 in0.0 mm 0.00 in0.0 mm 0.00 in0.0 mm
04:30 AM 65.0°F18.3°C 45.3°F7.4°C 49% 1.0 mph SE1.6 kmh SE 7.0 mph11.3 kmh 210.53 in7129.4 mb 0.00 in0.0 mm 0.00 in0.0 mm 0.00 in0.0 mm
04:35 AM 65.0°F18.3°C 46.4°F8.0°C 51% Calm Calm 7.0 mph11.3 kmh 210.53 in7129.4 mb 0.00 in0.0 mm 0.00 in0.0 mm 0.00 in0.0 mm
04:40 AM 65.0°F18.3°C 44.8°F7.1°C 48% 2.0 mph ESE3.2 kmh ESE 7.0 mph11.3 kmh 210.53 in7129.4 mb 0.00 in0.0 mm 0.00 in0.0 mm 0.00 in0.0 mm
04:45 AM 65.0°F18.3°C 46.4°F8.0°C 51% 1.0 mph W1.6 kmh W 7.0 mph11.3 kmh 210.53 in7129.4 mb 0.00 in0.0 mm 0.00 in0.0 mm 0.00 in0.0 mm
04:50 AM 65.0°F18.3°C 44.8°F7.1°C 48% 1.0 mph SE1.6 kmh SE 7.0 mph11.3 kmh 210.53 in7129.4 mb 0.00 in0.0 mm 0.00 in0.0 mm 0.00 in0.0 mm
04:55 AM 65.0°F18.3°C 48.4°F9.1°C 55% 2.0 mph ESE3.2 kmh ESE 7.0 mph11.3 kmh 210.53 in7129.4 mb 0.00 in0.0 mm 0.00 in0.0 mm 0.00 in0.0 mm
05:00 AM 65.0°F18.3°C 45.3°F7.4°C 49% 1.0 mph E1.6 kmh E 7.0 mph11.3 kmh 210.53 in7129.4 mb 0.00 in0.0 mm 0.00 in0.0 mm 0.00 in0.0 mm
05:05 AM 65.0°F18.3°C 46.4°F8.0°C 51% Calm Calm 7.0 mph11.3 kmh 210.53 in7129.4 mb 0.00 in0.0 mm 0.00 in0.0 mm 0.00 in0.0 mm
05:10 AM 64.0°F17.8°C 44.4°F6.9°C 49% Calm Calm 7.0 mph11.3 kmh 210.53 in7129.4 mb 0.00 in0.0 mm 0.00 in0.0 mm 0.00 in0.0 mm
05:15 AM 64.0°F17.8°C 45.5°F7.5°C 51% Calm Calm 7.0 mph11.3 kmh 210.54 in7129.7 mb 0.00 in0.0 mm 0.00 in0.0 mm 0.00 in0.0 mm
05:20 AM 64.0°F17.8°C 43.9°F6.6°C 48% Calm Calm 7.0 mph11.3 kmh 210.54 in7129.7 mb 0.00 in0.0 mm 0.00 in0.0 mm 0.00 in0.0 mm
05:25 AM 64.0°F17.8°C 45.5°F7.5°C 51% Calm Calm 7.0 mph11.3 kmh 210.54 in7129.7 mb 0.00 in0.0 mm 0.00 in0.0 mm 0.00 in0.0 mm
05:30 AM 64.0°F17.8°C 44.4°F6.9°C 49% 1.0 mph ESE1.6 kmh ESE 7.0 mph11.3 kmh 210.54 in7129.7 mb 0.00 in0.0 mm 0.00 in0.0 mm 0.00 in0.0 mm
05:35 AM 64.0°F17.8°C 44.9°F7.2°C 50% 1.0 mph SE1.6 kmh SE 7.0 mph11.3 kmh 210.54 in7129.7 mb 0.00 in0.0 mm 0.00 in0.0 mm 0.00 in0.0 mm
05:40 AM 64.0°F17.8°C 44.4°F6.9°C 49% 1.0 mph SE1.6 kmh SE 7.0 mph11.3 kmh 210.54 in7129.7 mb 0.00 in0.0 mm 0.00 in0.0 mm 0.00 in0.0 mm
05:45 AM 64.0°F17.8°C 44.9°F7.2°C 50% 2.0 mph SSE3.2 kmh SSE 7.0 mph11.3 kmh 210.54 in7129.7 mb 0.00 in0.0 mm 0.00 in0.0 mm 0.00 in0.0 mm
05:50 AM 64.0°F17.8°C 44.4°F6.9°C 49% 3.0 mph SE4.8 kmh SE 7.0 mph11.3 kmh 210.54 in7129.7 mb 0.00 in0.0 mm 0.00 in0.0 mm 0.00 in0.0 mm
05:55 AM 64.0°F17.8°C 44.9°F7.2°C 50% 2.0 mph SE3.2 kmh SE 7.0 mph11.3 kmh 210.54 in7129.7 mb 0.00 in0.0 mm 0.00 in0.0 mm 0.00 in0.0 mm
06:00 AM 64.0°F17.8°C 44.4°F6.9°C 49% 2.0 mph ESE3.2 kmh ESE 7.0 mph11.3 kmh 210.54 in7129.7 mb 0.00 in0.0 mm 0.00 in0.0 mm 0.00 in0.0 mm
06:05 AM 64.0°F17.8°C 45.5°F7.5°C 51% Calm Calm 7.0 mph11.3 kmh 210.55 in7130.0 mb 0.00 in0.0 mm 0.00 in0.0 mm 0.00 in0.0 mm
06:10 AM 64.0°F17.8°C 43.9°F6.6°C 48% 2.0 mph SE3.2 kmh SE 7.0 mph11.3 kmh 210.55 in7130.0 mb 0.00 in0.0 mm 0.00 in0.0 mm 0.00 in0.0 mm
06:15 AM 64.0°F17.8°C 44.9°F7.2°C 50% Calm Calm 7.0 mph11.3 kmh 210.55 in7130.0 mb 0.00 in0.0 mm 0.00 in0.0 mm 0.00 in0.0 mm
06:20 AM 64.0°F17.8°C 43.3°F6.3°C 47% Calm Calm 7.0 mph11.3 kmh 210.55 in7130.0 mb 0.00 in0.0 mm 0.00 in0.0 mm 0.00 in0.0 mm
06:25 AM 64.0°F17.8°C 44.4°F6.9°C 49% 2.0 mph E3.2 kmh E 7.0 mph11.3 kmh 210.55 in7130.0 mb 0.00 in0.0 mm 0.00 in0.0 mm 0.00 in0.0 mm
06:30 AM 64.0°F17.8°C 43.9°F6.6°C 48% Calm Calm 7.0 mph11.3 kmh 210.55 in7130.0 mb 0.00 in0.0 mm 0.00 in0.0 mm 0.00 in0.0 mm
06:35 AM 64.0°F17.8°C 45.5°F7.5°C 51% Calm Calm 7.0 mph11.3 kmh 210.55 in7130.0 mb 0.00 in0.0 mm 0.00 in0.0 mm 0.00 in0.0 mm
06:40 AM 64.0°F17.8°C 42.8°F6.0°C 46% Calm Calm 7.0 mph11.3 kmh 210.55 in7130.0 mb 0.00 in0.0 mm 0.00 in0.0 mm 0.00 in0.0 mm
06:45 AM 64.0°F17.8°C 44.9°F7.2°C 50% 1.0 mph SE1.6 kmh SE 7.0 mph11.3 kmh 210.55 in7130.0 mb 0.00 in0.0 mm 0.00 in0.0 mm 0.00 in0.0 mm
06:50 AM 64.0°F17.8°C 43.9°F6.6°C 48% Calm Calm 7.0 mph11.3 kmh 210.55 in7130.0 mb 0.00 in0.0 mm 0.00 in0.0 mm 0.00 in0.0 mm
06:55 AM 64.0°F17.8°C 45.5°F7.5°C 51% Calm Calm 7.0 mph11.3 kmh 210.55 in7130.0 mb 0.00 in0.0 mm 0.00 in0.0 mm 0.00 in0.0 mm
07:00 AM 64.0°F17.8°C 44.4°F6.9°C 49% Calm Calm 7.0 mph11.3 kmh 210.55 in7130.0 mb 0.00 in0.0 mm 0.00 in0.0 mm 0.00 in0.0 mm
07:05 AM 64.0°F17.8°C 44.9°F7.2°C 50% Calm Calm 7.0 mph11.3 kmh 210.56 in7130.4 mb 0.00 in0.0 mm 0.00 in0.0 mm 0.00 in0.0 mm
07:10 AM 64.0°F17.8°C 42.8°F6.0°C 46% Calm Calm 7.0 mph11.3 kmh 210.56 in7130.4 mb 0.00 in0.0 mm 0.00 in0.0 mm 0.00 in0.0 mm
07:15 AM 64.0°F17.8°C 45.5°F7.5°C 51% Calm Calm 7.0 mph11.3 kmh 210.56 in7130.4 mb 0.00 in0.0 mm 0.00 in0.0 mm 0.00 in0.0 mm
07:20 AM 64.0°F17.8°C 44.9°F7.2°C 50% Calm Calm 7.0 mph11.3 kmh 210.56 in7130.4 mb 0.00 in0.0 mm 0.00 in0.0 mm 0.00 in0.0 mm
07:25 AM 64.0°F17.8°C 45.5°F7.5°C 51% 1.0 mph E1.6 kmh E 7.0 mph11.3 kmh 210.56 in7130.4 mb 0.00 in0.0 mm 0.00 in0.0 mm 0.00 in0.0 mm
07:30 AM 64.0°F17.8°C 42.8°F6.0°C 46% Calm Calm 7.0 mph11.3 kmh 210.56 in7130.4 mb 0.00 in0.0 mm 0.00 in0.0 mm 0.00 in0.0 mm
07:35 AM 65.0°F18.3°C 45.3°F7.4°C 49% 1.0 mph SW1.6 kmh SW 7.0 mph11.3 kmh 210.56 in7130.4 mb 0.00 in0.0 mm 0.00 in0.0 mm 0.00 in0.0 mm
07:40 AM 65.0°F18.3°C 44.8°F7.1°C 48% 2.0 mph WSW3.2 kmh WSW 7.0 mph11.3 kmh 210.56 in7130.4 mb 0.00 in0.0 mm 0.00 in0.0 mm 0.00 in0.0 mm
07:45 AM 65.0°F18.3°C 45.9°F7.7°C 50% 2.0 mph ESE3.2 kmh ESE 7.0 mph11.3 kmh 210.56 in7130.4 mb 0.00 in0.0 mm 0.00 in0.0 mm 0.00 in0.0 mm
07:50 AM 65.0°F18.3°C 45.3°F7.4°C 49% 5.0 mph SE8.0 kmh SE 7.0 mph11.3 kmh 210.56 in7130.4 mb 0.00 in0.0 mm 0.00 in0.0 mm 0.00 in0.0 mm
07:55 AM 66.0°F18.9°C 47.3°F8.5°C 51% 1.0 mph S1.6 kmh S 7.0 mph11.3 kmh 210.57 in7130.7 mb 0.00 in0.0 mm 0.00 in0.0 mm 0.00 in0.0 mm
08:00 AM 66.0°F18.9°C 46.2°F7.9°C 49% 6.0 mph S9.7 kmh S 7.0 mph11.3 kmh 210.57 in7130.7 mb 0.00 in0.0 mm 0.00 in0.0 mm 0.00 in0.0 mm
08:05 AM 66.0°F18.9°C 47.8°F8.8°C 52% 2.0 mph S3.2 kmh S 7.0 mph11.3 kmh 210.57 in7130.7 mb 0.00 in0.0 mm 0.00 in0.0 mm 0.00 in0.0 mm
08:10 AM 66.0°F18.9°C 46.2°F7.9°C 49% 4.0 mph SE6.4 kmh SE 7.0 mph11.3 kmh 210.57 in7130.7 mb 0.00 in0.0 mm 0.00 in0.0 mm 0.00 in0.0 mm
08:15 AM 67.0°F19.4°C 48.2°F9.0°C 51% Calm Calm 7.0 mph11.3 kmh 210.56 in7130.4 mb 0.00 in0.0 mm 0.00 in0.0 mm 0.00 in0.0 mm
08:20 AM 67.0°F19.4°C 47.2°F8.4°C 49% 2.0 mph S3.2 kmh S 7.0 mph11.3 kmh 210.56 in7130.4 mb 0.00 in0.0 mm 0.00 in0.0 mm 0.00 in0.0 mm
08:25 AM 68.0°F20.0°C 49.2°F9.6°C 51% 3.0 mph S4.8 kmh S 7.0 mph11.3 kmh 210.56 in7130.4 mb 0.00 in0.0 mm 0.00 in0.0 mm 0.00 in0.0 mm
08:30 AM 68.0°F20.0°C 48.1°F8.9°C 49% Calm Calm 7.0 mph11.3 kmh 210.56 in7130.4 mb 0.00 in0.0 mm 0.00 in0.0 mm 0.00 in0.0 mm
08:35 AM 69.0°F20.6°C 50.1°F10.1°C 51% 1.0 mph ESE1.6 kmh ESE 7.0 mph11.3 kmh 210.56 in7130.4 mb 0.00 in0.0 mm 0.00 in0.0 mm 0.00 in0.0 mm
08:40 AM 69.0°F20.6°C 49.0°F9.4°C 49% Calm Calm 7.0 mph11.3 kmh 210.56 in7130.4 mb 0.00 in0.0 mm 0.00 in0.0 mm 0.00 in0.0 mm
08:45 AM 69.0°F20.6°C 49.5°F9.7°C 50% 4.0 mph S6.4 kmh S 7.0 mph11.3 kmh 210.56 in7130.4 mb 0.00 in0.0 mm 0.00 in0.0 mm 0.00 in0.0 mm
08:50 AM 70.0°F21.1°C 50.5°F10.3°C 50% Calm Calm 7.0 mph11.3 kmh 210.56 in7130.4 mb 0.00 in0.0 mm 0.00 in0.0 mm 0.00 in0.0 mm
08:55 AM 71.0°F21.7°C 52.4°F11.3°C 52% 4.0 mph S6.4 kmh S 8.0 mph12.9 kmh 210.56 in7130.4 mb 0.00 in0.0 mm 0.00 in0.0 mm 0.00 in0.0 mm
09:00 AM 70.0°F21.1°C 50.5°F10.3°C 50% 6.0 mph SW9.7 kmh SW 8.0 mph12.9 kmh 210.56 in7130.4 mb 0.00 in0.0 mm 0.00 in0.0 mm 0.00 in0.0 mm
09:05 AM 71.0°F21.7°C 52.4°F11.3°C 52% 4.0 mph SSW6.4 kmh SSW 8.0 mph12.9 kmh 210.56 in7130.4 mb 0.00 in0.0 mm 0.00 in0.0 mm 0.00 in0.0 mm
09:10 AM 71.0°F21.7°C 51.9°F11.1°C 51% 7.0 mph SSE11.3 kmh SSE 8.0 mph12.9 kmh 210.56 in7130.4 mb 0.00 in0.0 mm 0.00 in0.0 mm 0.00 in0.0 mm
09:15 AM 72.0°F22.2°C 53.4°F11.9°C 52% 3.0 mph ESE4.8 kmh ESE 8.0 mph12.9 kmh 210.56 in7130.4 mb 0.00 in0.0 mm 0.00 in0.0 mm 0.00 in0.0 mm
09:20 AM 72.0°F22.2°C 52.8°F11.6°C 51% 4.0 mph ESE6.4 kmh ESE 8.0 mph12.9 kmh 210.56 in7130.4 mb 0.00 in0.0 mm 0.00 in0.0 mm 0.00 in0.0 mm
09:25 AM 72.0°F22.2°C 53.4°F11.9°C 52% 3.0 mph SSE4.8 kmh SSE 8.0 mph12.9 kmh 210.56 in7130.4 mb 0.00 in0.0 mm 0.00 in0.0 mm 0.00 in0.0 mm
09:30 AM 72.0°F22.2°C 53.4°F11.9°C 52% 2.0 mph SSW3.2 kmh SSW 8.0 mph12.9 kmh 210.56 in7130.4 mb 0.00 in0.0 mm 0.00 in0.0 mm 0.00 in0.0 mm
09:35 AM 73.0°F22.8°C 54.8°F12.7°C 53% 4.0 mph SE6.4 kmh SE 9.0 mph14.5 kmh 210.55 in7130.0 mb 0.00 in0.0 mm 0.00 in0.0 mm 0.00 in0.0 mm
09:40 AM 73.0°F22.8°C 54.3°F12.4°C 52% 4.0 mph SSE6.4 kmh SSE 9.0 mph14.5 kmh 210.55 in7130.0 mb 0.00 in0.0 mm 0.00 in0.0 mm 0.00 in0.0 mm
09:45 AM 73.0°F22.8°C 54.8°F12.7°C 53% 1.0 mph E1.6 kmh E 9.0 mph14.5 kmh 210.56 in7130.4 mb 0.00 in0.0 mm 0.00 in0.0 mm 0.00 in0.0 mm
09:50 AM 74.0°F23.3°C 54.7°F12.6°C 51% 6.0 mph SSE9.7 kmh SSE 9.0 mph14.5 kmh 210.56 in7130.4 mb 0.00 in0.0 mm 0.00 in0.0 mm 0.00 in0.0 mm
09:55 AM 74.0°F23.3°C 55.7°F13.2°C 53% 5.0 mph S8.0 kmh S 10.0 mph16.1 kmh 210.56 in7130.4 mb 0.00 in0.0 mm 0.00 in0.0 mm 0.00 in0.0 mm
10:00 AM 73.0°F22.8°C 54.3°F12.4°C 52% 4.0 mph SSW6.4 kmh SSW 10.0 mph16.1 kmh 210.56 in7130.4 mb 0.00 in0.0 mm 0.00 in0.0 mm 0.00 in0.0 mm
10:05 AM 74.0°F23.3°C 55.7°F13.2°C 53% 6.0 mph SSW9.7 kmh SSW 10.0 mph16.1 kmh 210.55 in7130.0 mb 0.00 in0.0 mm 0.00 in0.0 mm 0.00 in0.0 mm
10:10 AM 74.0°F23.3°C 54.7°F12.6°C 51% 7.0 mph SSE11.3 kmh SSE 11.0 mph17.7 kmh 210.55 in7130.0 mb 0.00 in0.0 mm 0.00 in0.0 mm 0.00 in0.0 mm
10:15 AM 75.0°F23.9°C 57.2°F14.0°C 54% 6.0 mph SSE9.7 kmh SSE 11.0 mph17.7 kmh 210.55 in7130.0 mb 0.00 in0.0 mm 0.00 in0.0 mm 0.00 in0.0 mm
10:20 AM 75.0°F23.9°C 56.1°F13.4°C 52% 2.0 mph SSW3.2 kmh SSW 11.0 mph17.7 kmh 210.55 in7130.0 mb 0.00 in0.0 mm 0.00 in0.0 mm 0.00 in0.0 mm
10:25 AM 75.0°F23.9°C 56.7°F13.7°C 53% 7.0 mph S11.3 kmh S 12.0 mph19.3 kmh 210.56 in7130.4 mb 0.00 in0.0 mm 0.00 in0.0 mm 0.00 in0.0 mm
10:30 AM 75.0°F23.9°C 56.1°F13.4°C 52% 3.0 mph SE4.8 kmh SE 12.0 mph19.3 kmh 210.56 in7130.4 mb 0.00 in0.0 mm 0.00 in0.0 mm 0.00 in0.0 mm
10:35 AM 76.0°F24.4°C 58.6°F14.8°C 55% 6.0 mph SSE9.7 kmh SSE 12.0 mph19.3 kmh 210.55 in7130.0 mb 0.00 in0.0 mm 0.00 in0.0 mm 0.00 in0.0 mm
10:40 AM 76.0°F24.4°C 58.1°F14.5°C 54% 5.0 mph S8.0 kmh S 12.0 mph19.3 kmh 210.55 in7130.0 mb 0.00 in0.0 mm 0.00 in0.0 mm 0.00 in0.0 mm
10:45 AM 77.0°F25.0°C 59.0°F15.0°C 54% 6.0 mph S9.7 kmh S 12.0 mph19.3 kmh 210.55 in7130.0 mb 0.00 in0.0 mm 0.00 in0.0 mm 0.00 in0.0 mm
10:50 AM 77.0°F25.0°C 59.0°F15.0°C 54% 5.0 mph S8.0 kmh S 12.0 mph19.3 kmh 210.55 in7130.0 mb 0.00 in0.0 mm 0.00 in0.0 mm 0.00 in0.0 mm
10:55 AM 77.0°F25.0°C 59.0°F15.0°C 54% 4.0 mph S6.4 kmh S 12.0 mph19.3 kmh 210.55 in7130.0 mb 0.00 in0.0 mm 0.00 in0.0 mm 0.00 in0.0 mm
11:00 AM 77.0°F25.0°C 59.0°F15.0°C 54% 5.0 mph SW8.0 kmh SW 12.0 mph19.3 kmh 210.55 in7130.0 mb 0.00 in0.0 mm 0.00 in0.0 mm 0.00 in0.0 mm
11:05 AM 77.0°F25.0°C 59.5°F15.3°C 55% 8.0 mph S12.9 kmh S 12.0 mph19.3 kmh 210.55 in7130.0 mb 0.00 in0.0 mm 0.00 in0.0 mm 0.00 in0.0 mm
11:10 AM 77.0°F25.0°C 59.0°F15.0°C 54% 6.0 mph S9.7 kmh S 12.0 mph19.3 kmh 210.55 in7130.0 mb 0.00 in0.0 mm 0.00 in0.0 mm 0.00 in0.0 mm
11:15 AM 77.0°F25.0°C 59.0°F15.0°C 54% 5.0 mph SSW8.0 kmh SSW 12.0 mph19.3 kmh 210.55 in7130.0 mb 0.00 in0.0 mm 0.00 in0.0 mm 0.00 in0.0 mm
11:20 AM 77.0°F25.0°C 59.0°F15.0°C 54% 4.0 mph SSW6.4 kmh SSW 12.0 mph19.3 kmh 210.55 in7130.0 mb 0.00 in0.0 mm 0.00 in0.0 mm 0.00 in0.0 mm
11:25 AM 78.0°F25.6°C 59.4°F15.2°C 53% 3.0 mph S4.8 kmh S 12.0 mph19.3 kmh 210.54 in7129.7 mb 0.00 in0.0 mm 0.00 in0.0 mm 0.00 in0.0 mm
11:30 AM 78.0°F25.6°C 60.0°F15.6°C 54% 6.0 mph S9.7 kmh S 12.0 mph19.3 kmh 210.54 in7129.7 mb 0.00 in0.0 mm 0.00 in0.0 mm 0.00 in0.0 mm
11:35 AM 78.0°F25.6°C 60.5°F15.8°C 55% 6.0 mph S9.7 kmh S 12.0 mph19.3 kmh 210.54 in7129.7 mb 0.00 in0.0 mm 0.00 in0.0 mm 0.00 in0.0 mm
11:40 AM 79.0°F26.1°C 60.9°F16.1°C 54% 7.0 mph S11.3 kmh S 12.0 mph19.3 kmh 210.54 in7129.7 mb 0.00 in0.0 mm 0.00 in0.0 mm 0.00 in0.0 mm
11:45 AM 79.0°F26.1°C 60.9°F16.1°C 54% 9.0 mph SW14.5 kmh SW 12.0 mph19.3 kmh 210.53 in7129.4 mb 0.00 in0.0 mm 0.00 in0.0 mm 0.00 in0.0 mm
11:50 AM 80.0°F26.7°C 61.8°F16.6°C 54% 3.0 mph SSW4.8 kmh SSW 12.0 mph19.3 kmh 210.53 in7129.4 mb 0.00 in0.0 mm 0.00 in0.0 mm 0.00 in0.0 mm
11:55 AM 79.0°F26.1°C 61.4°F16.3°C 55% 3.0 mph S4.8 kmh S 12.0 mph19.3 kmh 210.53 in7129.4 mb 0.00 in0.0 mm 0.00 in0.0 mm 0.00 in0.0 mm
12:00 PM 80.0°F26.7°C 62.3°F16.8°C 55% 1.0 mph ESE1.6 kmh ESE 12.0 mph19.3 kmh 210.53 in7129.4 mb 0.00 in0.0 mm 0.00 in0.0 mm 0.00 in0.0 mm
12:05 PM 80.0°F26.7°C 63.3°F17.4°C 57% 1.0 mph S1.6 kmh S 12.0 mph19.3 kmh 210.53 in7129.4 mb 0.00 in0.0 mm 0.00 in0.0 mm 0.00 in0.0 mm
12:10 PM 79.0°F26.1°C 61.4°F16.3°C 55% 9.0 mph SE14.5 kmh SE 12.0 mph19.3 kmh 210.53 in7129.4 mb 0.00 in0.0 mm 0.00 in0.0 mm 0.00 in0.0 mm
12:15 PM 79.0°F26.1°C 60.9°F16.1°C 54% 7.0 mph S11.3 kmh S 12.0 mph19.3 kmh 210.53 in7129.4 mb 0.00 in0.0 mm 0.00 in0.0 mm 0.00 in0.0 mm
12:20 PM 79.0°F26.1°C 60.9°F16.1°C 54% 3.0 mph SE4.8 kmh SE 12.0 mph19.3 kmh 210.53 in7129.4 mb 0.00 in0.0 mm 0.00 in0.0 mm 0.00 in0.0 mm
12:25 PM 80.0°F26.7°C 62.3°F16.8°C 55% Calm Calm 12.0 mph19.3 kmh 210.53 in7129.4 mb 0.00 in0.0 mm 0.00 in0.0 mm 0.00 in0.0 mm
12:30 PM 80.0°F26.7°C 62.3°F16.8°C 55% 7.0 mph S11.3 kmh S 12.0 mph19.3 kmh 210.53 in7129.4 mb 0.00 in0.0 mm 0.00 in0.0 mm 0.00 in0.0 mm
12:35 PM 80.0°F26.7°C 62.3°F16.8°C 55% 9.0 mph SSW14.5 kmh SSW 12.0 mph19.3 kmh 210.53 in7129.4 mb 0.00 in0.0 mm 0.00 in0.0 mm 0.00 in0.0 mm
12:40 PM 80.0°F26.7°C 61.8°F16.6°C 54% 8.0 mph S12.9 kmh S 12.0 mph19.3 kmh 210.53 in7129.4 mb 0.00 in0.0 mm 0.00 in0.0 mm 0.00 in0.0 mm
12:45 PM 79.0°F26.1°C 60.9°F16.1°C 54% 7.0 mph S11.3 kmh S 12.0 mph19.3 kmh 210.53 in7129.4 mb 0.00 in0.0 mm 0.00 in0.0 mm 0.00 in0.0 mm
12:50 PM 79.0°F26.1°C 60.9°F16.1°C 54% 4.0 mph SSW6.4 kmh SSW 12.0 mph19.3 kmh 210.53 in7129.4 mb 0.00 in0.0 mm 0.00 in0.0 mm 0.00 in0.0 mm
12:55 PM 81.0°F27.2°C 63.3°F17.4°C 55% 6.0 mph SSW9.7 kmh SSW 12.0 mph19.3 kmh 210.51 in7128.7 mb 0.00 in0.0 mm 0.00 in0.0 mm 0.00 in0.0 mm
01:00 PM 81.0°F27.2°C 62.7°F17.1°C 54% 8.0 mph S12.9 kmh S 12.0 mph19.3 kmh 210.51 in7128.7 mb 0.00 in0.0 mm 0.00 in0.0 mm 0.00 in0.0 mm
01:05 PM 81.0°F27.2°C 63.3°F17.4°C 55% 2.0 mph SSE3.2 kmh SSE 12.0 mph19.3 kmh 210.51 in7128.7 mb 0.00 in0.0 mm 0.00 in0.0 mm 0.00 in0.0 mm
01:10 PM 81.0°F27.2°C 62.7°F17.1°C 54% 5.0 mph SSE8.0 kmh SSE 12.0 mph19.3 kmh 210.51 in7128.7 mb 0.00 in0.0 mm 0.00 in0.0 mm 0.00 in0.0 mm
01:15 PM 81.0°F27.2°C 63.3°F17.4°C 55% 5.0 mph W8.0 kmh W 12.0 mph19.3 kmh 210.51 in7128.7 mb 0.00 in0.0 mm 0.00 in0.0 mm 0.00 in0.0 mm
01:20 PM 82.0°F27.8°C 63.7°F17.6°C 54% 5.0 mph ESE8.0 kmh ESE 12.0 mph19.3 kmh 210.51 in7128.7 mb 0.00 in0.0 mm 0.00 in0.0 mm 0.00 in0.0 mm
01:25 PM 81.0°F27.2°C 62.7°F17.1°C 54% 6.0 mph SE9.7 kmh SE 12.0 mph19.3 kmh 210.51 in7128.7 mb 0.00 in0.0 mm 0.00 in0.0 mm 0.00 in0.0 mm
01:30 PM 81.0°F27.2°C 62.2°F16.8°C 53% 2.0 mph SE3.2 kmh SE 13.0 mph20.9 kmh 210.51 in7128.7 mb 0.00 in0.0 mm 0.00 in0.0 mm 0.00 in0.0 mm
01:35 PM 81.0°F27.2°C 62.7°F17.1°C 54% 6.0 mph SSW9.7 kmh SSW 13.0 mph20.9 kmh 210.51 in7128.7 mb 0.00 in0.0 mm 0.00 in0.0 mm 0.00 in0.0 mm
01:40 PM 81.0°F27.2°C 62.7°F17.1°C 54% 2.0 mph SE3.2 kmh SE 13.0 mph20.9 kmh 210.51 in7128.7 mb 0.00 in0.0 mm 0.00 in0.0 mm 0.00 in0.0 mm
01:45 PM 82.0°F27.8°C 63.7°F17.6°C 54% 7.0 mph SW11.3 kmh SW 13.0 mph20.9 kmh 210.50 in7128.4 mb 0.00 in0.0 mm 0.00 in0.0 mm 0.00 in0.0 mm
01:50 PM 82.0°F27.8°C 63.1°F17.3°C 53% 3.0 mph SW4.8 kmh SW 13.0 mph20.9 kmh 210.50 in7128.4 mb 0.00 in0.0 mm 0.00 in0.0 mm 0.00 in0.0 mm
01:55 PM 83.0°F28.3°C 64.6°F18.1°C 54% 2.0 mph SE3.2 kmh SE 13.0 mph20.9 kmh 210.49 in7128.0 mb 0.00 in0.0 mm 0.00 in0.0 mm 0.00 in0.0 mm
02:00 PM 82.0°F27.8°C 63.7°F17.6°C 54% 8.0 mph SE12.9 kmh SE 13.0 mph20.9 kmh 210.49 in7128.0 mb 0.00 in0.0 mm 0.00 in0.0 mm 0.00 in0.0 mm
02:05 PM 82.0°F27.8°C 63.7°F17.6°C 54% 3.0 mph SSW4.8 kmh SSW 13.0 mph20.9 kmh 210.50 in7128.4 mb 0.00 in0.0 mm 0.00 in0.0 mm 0.00 in0.0 mm
02:10 PM 82.0°F27.8°C 63.7°F17.6°C 54% 6.0 mph SW9.7 kmh SW 13.0 mph20.9 kmh 210.50 in7128.4 mb 0.00 in0.0 mm 0.00 in0.0 mm 0.00 in0.0 mm
02:15 PM 82.0°F27.8°C 63.7°F17.6°C 54% 6.0 mph S9.7 kmh S 13.0 mph20.9 kmh 210.49 in7128.0 mb 0.00 in0.0 mm 0.00 in0.0 mm 0.00 in0.0 mm
02:20 PM 82.0°F27.8°C 64.2°F17.9°C 55% 5.0 mph SE8.0 kmh SE 15.0 mph24.1 kmh 210.49 in7128.0 mb 0.00 in0.0 mm 0.00 in0.0 mm 0.00 in0.0 mm
02:25 PM 83.0°F28.3°C 64.6°F18.1°C 54% 7.0 mph SSW11.3 kmh SSW 15.0 mph24.1 kmh 210.49 in7128.0 mb 0.00 in0.0 mm 0.00 in0.0 mm 0.00 in0.0 mm
02:30 PM 82.0°F27.8°C 63.1°F17.3°C 53% 9.0 mph SSE14.5 kmh SSE 15.0 mph24.1 kmh 210.49 in7128.0 mb 0.00 in0.0 mm 0.00 in0.0 mm 0.00 in0.0 mm
02:35 PM 83.0°F28.3°C 64.6°F18.1°C 54% 2.0 mph S3.2 kmh S 15.0 mph24.1 kmh 210.48 in7127.7 mb 0.00 in0.0 mm 0.00 in0.0 mm 0.00 in0.0 mm
02:40 PM 83.0°F28.3°C 64.0°F17.8°C 53% 4.0 mph S6.4 kmh S 15.0 mph24.1 kmh 210.48 in7127.7 mb 0.00 in0.0 mm 0.00 in0.0 mm 0.00 in0.0 mm
02:45 PM 83.0°F28.3°C 64.6°F18.1°C 54% 6.0 mph SW9.7 kmh SW 15.0 mph24.1 kmh 210.48 in7127.7 mb 0.00 in0.0 mm 0.00 in0.0 mm 0.00 in0.0 mm
02:50 PM 84.0°F28.9°C 65.5°F18.6°C 54% 6.0 mph S9.7 kmh S 15.0 mph24.1 kmh 210.48 in7127.7 mb 0.00 in0.0 mm 0.00 in0.0 mm 0.00 in0.0 mm
02:55 PM 84.0°F28.9°C 65.5°F18.6°C 54% 5.0 mph SSW8.0 kmh SSW 15.0 mph24.1 kmh 210.47 in7127.3 mb 0.00 in0.0 mm 0.00 in0.0 mm 0.00 in0.0 mm
03:00 PM 84.0°F28.9°C 65.5°F18.6°C 54% 5.0 mph S8.0 kmh S 15.0 mph24.1 kmh 210.47 in7127.3 mb 0.00 in0.0 mm 0.00 in0.0 mm 0.00 in0.0 mm
03:05 PM 83.0°F28.3°C 64.6°F18.1°C 54% 7.0 mph SSW11.3 kmh SSW 15.0 mph24.1 kmh 210.48 in7127.7 mb 0.00 in0.0 mm 0.00 in0.0 mm 0.00 in0.0 mm
03:10 PM 83.0°F28.3°C 64.0°F17.8°C 53% 6.0 mph SSW9.7 kmh SSW 15.0 mph24.1 kmh 210.48 in7127.7 mb 0.00 in0.0 mm 0.00 in0.0 mm 0.00 in0.0 mm
03:15 PM 84.0°F28.9°C 65.5°F18.6°C 54% 5.0 mph S8.0 kmh S 15.0 mph24.1 kmh 210.47 in7127.3 mb 0.00 in0.0 mm 0.00 in0.0 mm 0.00 in0.0 mm
03:20 PM 84.0°F28.9°C 65.0°F18.3°C 53% 3.0 mph SSW4.8 kmh SSW 15.0 mph24.1 kmh 210.47 in7127.3 mb 0.00 in0.0 mm 0.00 in0.0 mm 0.00 in0.0 mm
03:25 PM 85.0°F29.4°C 63.0°F17.2°C 48% 7.0 mph ESE11.3 kmh ESE 15.0 mph24.1 kmh 210.46 in7127.0 mb 0.00 in0.0 mm 0.00 in0.0 mm 0.00 in0.0 mm
03:30 PM 84.0°F28.9°C 62.1°F16.7°C 48% 9.0 mph SSW14.5 kmh SSW 16.0 mph25.7 kmh 210.46 in7127.0 mb 0.00 in0.0 mm 0.00 in0.0 mm 0.00 in0.0 mm
03:35 PM 84.0°F28.9°C 62.1°F16.7°C 48% 9.0 mph SW14.5 kmh SW 16.0 mph25.7 kmh 210.46 in7127.0 mb 0.00 in0.0 mm 0.00 in0.0 mm 0.00 in0.0 mm
03:40 PM 84.0°F28.9°C 65.5°F18.6°C 54% 5.0 mph SW8.0 kmh SW 16.0 mph25.7 kmh 210.46 in7127.0 mb 0.00 in0.0 mm 0.00 in0.0 mm 0.00 in0.0 mm
03:45 PM 84.0°F28.9°C 62.1°F16.7°C 48% 6.0 mph S9.7 kmh S 16.0 mph25.7 kmh 210.46 in7127.0 mb 0.00 in0.0 mm 0.00 in0.0 mm 0.00 in0.0 mm
03:50 PM 84.0°F28.9°C 65.5°F18.6°C 54% 8.0 mph SSW12.9 kmh SSW 16.0 mph25.7 kmh 210.46 in7127.0 mb 0.00 in0.0 mm 0.00 in0.0 mm 0.00 in0.0 mm
03:55 PM 84.0°F28.9°C 62.1°F16.7°C 48% 10.0 mph SW16.1 kmh SW 17.0 mph27.4 kmh 210.46 in7127.0 mb 0.00 in0.0 mm 0.00 in0.0 mm 0.00 in0.0 mm
04:00 PM 84.0°F28.9°C 62.1°F16.7°C 48% 9.0 mph SW14.5 kmh SW 17.0 mph27.4 kmh 210.46 in7127.0 mb 0.00 in0.0 mm 0.00 in0.0 mm 0.00 in0.0 mm
04:05 PM 84.0°F28.9°C 62.1°F16.7°C 48% 11.0 mph SSE17.7 kmh SSE 17.0 mph27.4 kmh 210.46 in7127.0 mb 0.00 in0.0 mm 0.00 in0.0 mm 0.00 in0.0 mm
04:10 PM 84.0°F28.9°C 62.1°F16.7°C 48% 10.0 mph S16.1 kmh S 17.0 mph27.4 kmh 210.46 in7127.0 mb 0.00 in0.0 mm 0.00 in0.0 mm 0.00 in0.0 mm
04:15 PM 84.0°F28.9°C 62.1°F16.7°C 48% 11.0 mph SSW17.7 kmh SSW 17.0 mph27.4 kmh 210.46 in7127.0 mb 0.00 in0.0 mm 0.00 in0.0 mm 0.00 in0.0 mm
04:20 PM 83.0°F28.3°C 61.2°F16.2°C 48% 7.0 mph SSW11.3 kmh SSW 19.0 mph30.6 kmh 210.46 in7127.0 mb 0.00 in0.0 mm 0.00 in0.0 mm 0.00 in0.0 mm
04:25 PM 83.0°F28.3°C 61.2°F16.2°C 48% 8.0 mph S12.9 kmh S 19.0 mph30.6 kmh 210.47 in7127.3 mb 0.00 in0.0 mm 0.00 in0.0 mm 0.00 in0.0 mm
04:30 PM 83.0°F28.3°C 61.2°F16.2°C 48% 7.0 mph SSW11.3 kmh SSW 19.0 mph30.6 kmh 210.47 in7127.3 mb 0.00 in0.0 mm 0.00 in0.0 mm 0.00 in0.0 mm
04:35 PM 82.0°F27.8°C 60.3°F15.7°C 48% 2.0 mph S3.2 kmh S 19.0 mph30.6 kmh 210.47 in7127.3 mb 0.00 in0.0 mm 0.00 in0.0 mm 0.00 in0.0 mm
04:40 PM 82.0°F27.8°C 60.3°F15.7°C 48% 7.0 mph SSW11.3 kmh SSW 19.0 mph30.6 kmh 210.47 in7127.3 mb 0.00 in0.0 mm 0.00 in0.0 mm 0.00 in0.0 mm
04:45 PM 83.0°F28.3°C 61.8°F16.6°C 49% 8.0 mph ESE12.9 kmh ESE 19.0 mph30.6 kmh 210.47 in7127.3 mb 0.00 in0.0 mm 0.00 in0.0 mm 0.00 in0.0 mm
04:50 PM 83.0°F28.3°C 61.2°F16.2°C 48% 2.0 mph SW3.2 kmh SW 19.0 mph30.6 kmh 210.47 in7127.3 mb 0.00 in0.0 mm 0.00 in0.0 mm 0.00 in0.0 mm
04:55 PM 83.0°F28.3°C 61.2°F16.2°C 48% 18.0 mph SW29.0 kmh SW 19.0 mph30.6 kmh 210.46 in7127.0 mb 0.00 in0.0 mm 0.00 in0.0 mm 0.00 in0.0 mm
05:00 PM 82.0°F27.8°C 60.3°F15.7°C 48% 7.0 mph SW11.3 kmh SW 19.0 mph30.6 kmh 210.46 in7127.0 mb 0.00 in0.0 mm 0.00 in0.0 mm 0.00 in0.0 mm
05:05 PM 82.0°F27.8°C 60.9°F16.1°C 49% 9.0 mph SSW14.5 kmh SSW 19.0 mph30.6 kmh 210.47 in7127.3 mb 0.00 in0.0 mm 0.00 in0.0 mm 0.00 in0.0 mm
05:10 PM 82.0°F27.8°C 60.3°F15.7°C 48% 10.0 mph SW16.1 kmh SW 19.0 mph30.6 kmh 210.47 in7127.3 mb 0.00 in0.0 mm 0.00 in0.0 mm 0.00 in0.0 mm
05:15 PM 81.0°F27.2°C 62.7°F17.1°C 54% 6.0 mph SW9.7 kmh SW 19.0 mph30.6 kmh 210.47 in7127.3 mb 0.00 in0.0 mm 0.00 in0.0 mm 0.00 in0.0 mm
05:20 PM 81.0°F27.2°C 62.7°F17.1°C 54% 9.0 mph SW14.5 kmh SW 19.0 mph30.6 kmh 210.47 in7127.3 mb 0.00 in0.0 mm 0.00 in0.0 mm 0.00 in0.0 mm
05:25 PM 81.0°F27.2°C 62.7°F17.1°C 54% 6.0 mph SSW9.7 kmh SSW 19.0 mph30.6 kmh 210.47 in7127.3 mb 0.00 in0.0 mm 0.00 in0.0 mm 0.00 in0.0 mm
05:30 PM 81.0°F27.2°C 62.7°F17.1°C 54% 2.0 mph SW3.2 kmh SW 19.0 mph30.6 kmh 210.47 in7127.3 mb 0.00 in0.0 mm 0.00 in0.0 mm 0.00 in0.0 mm
05:35 PM 81.0°F27.2°C 62.7°F17.1°C 54% 8.0 mph SW12.9 kmh SW 19.0 mph30.6 kmh 210.47 in7127.3 mb 0.00 in0.0 mm 0.00 in0.0 mm 0.00 in0.0 mm
05:40 PM 81.0°F27.2°C 62.7°F17.1°C 54% 10.0 mph SSW16.1 kmh SSW 19.0 mph30.6 kmh 210.47 in7127.3 mb 0.00 in0.0 mm 0.00 in0.0 mm 0.00 in0.0 mm
05:45 PM 80.0°F26.7°C 61.3°F16.3°C 53% 3.0 mph SW4.8 kmh SW 19.0 mph30.6 kmh 210.48 in7127.7 mb 0.00 in0.0 mm 0.00 in0.0 mm 0.00 in0.0 mm
05:50 PM 80.0°F26.7°C 61.3°F16.3°C 53% 7.0 mph SW11.3 kmh SW 19.0 mph30.6 kmh 210.48 in7127.7 mb 0.00 in0.0 mm 0.00 in0.0 mm 0.00 in0.0 mm
05:55 PM 80.0°F26.7°C 59.6°F15.3°C 50% 1.0 mph SW1.6 kmh SW 19.0 mph30.6 kmh 210.48 in7127.7 mb 0.00 in0.0 mm 0.00 in0.0 mm 0.00 in0.0 mm
06:00 PM 79.0°F26.1°C 58.1°F14.5°C 49% 9.0 mph SW14.5 kmh SW 19.0 mph30.6 kmh 210.48 in7127.7 mb 0.00 in0.0 mm 0.00 in0.0 mm 0.00 in0.0 mm
06:05 PM 80.0°F26.7°C 59.1°F15.1°C 49% 5.0 mph S8.0 kmh S 19.0 mph30.6 kmh 210.48 in7127.7 mb 0.00 in0.0 mm 0.00 in0.0 mm 0.00 in0.0 mm
06:10 PM 79.0°F26.1°C 58.1°F14.5°C 49% 3.0 mph S4.8 kmh S 19.0 mph30.6 kmh 210.48 in7127.7 mb 0.00 in0.0 mm 0.00 in0.0 mm 0.00 in0.0 mm
06:15 PM 80.0°F26.7°C 59.1°F15.1°C 49% 6.0 mph SSW9.7 kmh SSW 19.0 mph30.6 kmh 210.48 in7127.7 mb 0.00 in0.0 mm 0.00 in0.0 mm 0.00 in0.0 mm
06:20 PM 80.0°F26.7°C 59.1°F15.1°C 49% 7.0 mph SW11.3 kmh SW 19.0 mph30.6 kmh 210.48 in7127.7 mb 0.00 in0.0 mm 0.00 in0.0 mm 0.00 in0.0 mm
06:25 PM 80.0°F26.7°C 59.1°F15.1°C 49% 6.0 mph SW9.7 kmh SW 19.0 mph30.6 kmh 210.47 in7127.3 mb 0.00 in0.0 mm 0.00 in0.0 mm 0.00 in0.0 mm
06:30 PM 80.0°F26.7°C 59.1°F15.1°C 49% 9.0 mph SSW14.5 kmh SSW 19.0 mph30.6 kmh 210.47 in7127.3 mb 0.00 in0.0 mm 0.00 in0.0 mm 0.00 in0.0 mm
06:35 PM 81.0°F27.2°C 60.0°F15.6°C 49% 3.0 mph SE4.8 kmh SE 19.0 mph30.6 kmh 210.46 in7127.0 mb 0.00 in0.0 mm 0.00 in0.0 mm 0.00 in0.0 mm
06:40 PM 80.0°F26.7°C 59.1°F15.1°C 49% 7.0 mph SW11.3 kmh SW 19.0 mph30.6 kmh 210.46 in7127.0 mb 0.00 in0.0 mm 0.00 in0.0 mm 0.00 in0.0 mm
06:45 PM 80.0°F26.7°C 59.1°F15.1°C 49% 4.0 mph S6.4 kmh S 19.0 mph30.6 kmh 210.47 in7127.3 mb 0.00 in0.0 mm 0.00 in0.0 mm 0.00 in0.0 mm
06:50 PM 80.0°F26.7°C 59.1°F15.1°C 49% 1.0 mph SW1.6 kmh SW 19.0 mph30.6 kmh 210.47 in7127.3 mb 0.00 in0.0 mm 0.00 in0.0 mm 0.00 in0.0 mm
06:55 PM 80.0°F26.7°C 59.1°F15.1°C 49% 6.0 mph SW9.7 kmh SW 19.0 mph30.6 kmh 210.47 in7127.3 mb 0.00 in0.0 mm 0.00 in0.0 mm 0.00 in0.0 mm
07:00 PM 80.0°F26.7°C 59.1°F15.1°C 49% 5.0 mph SE8.0 kmh SE 19.0 mph30.6 kmh 210.47 in7127.3 mb 0.00 in0.0 mm 0.00 in0.0 mm 0.00 in0.0 mm
07:05 PM 80.0°F26.7°C 59.1°F15.1°C 49% 4.0 mph S6.4 kmh S 19.0 mph30.6 kmh 210.47 in7127.3 mb 0.00 in0.0 mm 0.00 in0.0 mm 0.00 in0.0 mm
07:10 PM 79.0°F26.1°C 58.1°F14.5°C 49% 3.0 mph S4.8 kmh S 19.0 mph30.6 kmh 210.47 in7127.3 mb 0.00 in0.0 mm 0.00 in0.0 mm 0.00 in0.0 mm
07:15 PM 79.0°F26.1°C 58.7°F14.8°C 50% 5.0 mph SSW8.0 kmh SSW 19.0 mph30.6 kmh 210.47 in7127.3 mb 0.00 in0.0 mm 0.00 in0.0 mm 0.00 in0.0 mm
07:20 PM 79.0°F26.1°C 58.1°F14.5°C 49% 3.0 mph SSW4.8 kmh SSW 19.0 mph30.6 kmh 210.47 in7127.3 mb 0.00 in0.0 mm 0.00 in0.0 mm 0.00 in0.0 mm
07:25 PM 78.0°F25.6°C 60.0°F15.6°C 54% 2.0 mph SSE3.2 kmh SSE 19.0 mph30.6 kmh 210.47 in7127.3 mb 0.00 in0.0 mm 0.00 in0.0 mm 0.00 in0.0 mm
07:30 PM 78.0°F25.6°C 59.4°F15.2°C 53% 4.0 mph S6.4 kmh S 19.0 mph30.6 kmh 210.47 in7127.3 mb 0.00 in0.0 mm 0.00 in0.0 mm 0.00 in0.0 mm
07:35 PM 77.0°F25.0°C 59.0°F15.0°C 54% 3.0 mph SSE4.8 kmh SSE 19.0 mph30.6 kmh 210.47 in7127.3 mb 0.00 in0.0 mm 0.00 in0.0 mm 0.00 in0.0 mm
07:40 PM 77.0°F25.0°C 59.5°F15.3°C 55% 2.0 mph S3.2 kmh S 19.0 mph30.6 kmh 210.47 in7127.3 mb 0.00 in0.0 mm 0.00 in0.0 mm 0.00 in0.0 mm
07:45 PM 77.0°F25.0°C 59.0°F15.0°C 54% 3.0 mph SSE4.8 kmh SSE 19.0 mph30.6 kmh 210.47 in7127.3 mb 0.00 in0.0 mm 0.00 in0.0 mm 0.00 in0.0 mm
07:50 PM 76.0°F24.4°C 58.6°F14.8°C 55% 3.0 mph SSE4.8 kmh SSE 19.0 mph30.6 kmh 210.47 in7127.3 mb 0.00 in0.0 mm 0.00 in0.0 mm 0.00 in0.0 mm
07:55 PM 76.0°F24.4°C 58.1°F14.5°C 54% 4.0 mph SSE6.4 kmh SSE 19.0 mph30.6 kmh 210.48 in7127.7 mb 0.00 in0.0 mm 0.00 in0.0 mm 0.00 in0.0 mm
08:00 PM 76.0°F24.4°C 58.1°F14.5°C 54% 1.0 mph SSE1.6 kmh SSE 19.0 mph30.6 kmh 210.48 in7127.7 mb 0.00 in0.0 mm 0.00 in0.0 mm 0.00 in0.0 mm
08:05 PM 76.0°F24.4°C 58.1°F14.5°C 54% Calm Calm 19.0 mph30.6 kmh 210.47 in7127.3 mb 0.00 in0.0 mm 0.00 in0.0 mm 0.00 in0.0 mm
08:10 PM 75.0°F23.9°C 57.2°F14.0°C 54% Calm Calm 19.0 mph30.6 kmh 210.47 in7127.3 mb 0.00 in0.0 mm 0.00 in0.0 mm 0.00 in0.0 mm
08:15 PM 75.0°F23.9°C 56.7°F13.7°C 53% 1.0 mph SE1.6 kmh SE 19.0 mph30.6 kmh 210.48 in7127.7 mb 0.00 in0.0 mm 0.00 in0.0 mm 0.00 in0.0 mm
08:20 PM 75.0°F23.9°C 56.7°F13.7°C 53% 2.0 mph ESE3.2 kmh ESE 19.0 mph30.6 kmh 210.48 in7127.7 mb 0.00 in0.0 mm 0.00 in0.0 mm 0.00 in0.0 mm
08:25 PM 75.0°F23.9°C 56.7°F13.7°C 53% Calm Calm 19.0 mph30.6 kmh 210.48 in7127.7 mb 0.00 in0.0 mm 0.00 in0.0 mm 0.00 in0.0 mm
08:30 PM 75.0°F23.9°C 56.7°F13.7°C 53% 1.0 mph ESE1.6 kmh ESE 19.0 mph30.6 kmh 210.48 in7127.7 mb 0.00 in0.0 mm 0.00 in0.0 mm 0.00 in0.0 mm
08:35 PM 75.0°F23.9°C 56.7°F13.7°C 53% 1.0 mph SE1.6 kmh SE 19.0 mph30.6 kmh 210.48 in7127.7 mb 0.00 in0.0 mm 0.00 in0.0 mm 0.00 in0.0 mm
08:40 PM 75.0°F23.9°C 56.1°F13.4°C 52% Calm Calm 19.0 mph30.6 kmh 210.48 in7127.7 mb 0.00 in0.0 mm 0.00 in0.0 mm 0.00 in0.0 mm
08:45 PM 75.0°F23.9°C 56.1°F13.4°C 52% 1.0 mph SE1.6 kmh SE 19.0 mph30.6 kmh 210.48 in7127.7 mb 0.00 in0.0 mm 0.00 in0.0 mm 0.00 in0.0 mm
08:50 PM 75.0°F23.9°C 55.0°F12.8°C 50% 3.0 mph SE4.8 kmh SE 19.0 mph30.6 kmh 210.49 in7128.0 mb 0.00 in0.0 mm 0.00 in0.0 mm 0.00 in0.0 mm
08:55 PM 75.0°F23.9°C 56.1°F13.4°C 52% 2.0 mph SE3.2 kmh SE 19.0 mph30.6 kmh 210.49 in7128.0 mb 0.00 in0.0 mm 0.00 in0.0 mm 0.00 in0.0 mm
09:00 PM 75.0°F23.9°C 57.2°F14.0°C 54% 1.0 mph SSE1.6 kmh SSE 19.0 mph30.6 kmh 210.49 in7128.0 mb 0.00 in0.0 mm 0.00 in0.0 mm 0.00 in0.0 mm
09:05 PM 75.0°F23.9°C 56.7°F13.7°C 53% 3.0 mph SSE4.8 kmh SSE 19.0 mph30.6 kmh 210.49 in7128.0 mb 0.00 in0.0 mm 0.00 in0.0 mm 0.00 in0.0 mm
09:10 PM 75.0°F23.9°C 56.1°F13.4°C 52% 2.0 mph SE3.2 kmh SE 19.0 mph30.6 kmh 210.49 in7128.0 mb 0.00 in0.0 mm 0.00 in0.0 mm 0.00 in0.0 mm
09:15 PM 74.0°F23.3°C 55.7°F13.2°C 53% 5.0 mph SSE8.0 kmh SSE 19.0 mph30.6 kmh 210.49 in7128.0 mb 0.00 in0.0 mm 0.00 in0.0 mm 0.00 in0.0 mm
09:20 PM 74.0°F23.3°C 55.2°F12.9°C 52% 3.0 mph SE4.8 kmh SE 19.0 mph30.6 kmh 210.49 in7128.0 mb 0.00 in0.0 mm 0.00 in0.0 mm 0.00 in0.0 mm
09:25 PM 74.0°F23.3°C 55.2°F12.9°C 52% 2.0 mph SE3.2 kmh SE 19.0 mph30.6 kmh 210.49 in7128.0 mb 0.00 in0.0 mm 0.00 in0.0 mm 0.00 in0.0 mm
09:30 PM 74.0°F23.3°C 55.2°F12.9°C 52% 4.0 mph SE6.4 kmh SE 19.0 mph30.6 kmh 210.49 in7128.0 mb 0.00 in0.0 mm 0.00 in0.0 mm 0.00 in0.0 mm
09:35 PM 74.0°F23.3°C 55.2°F12.9°C 52% 1.0 mph SE1.6 kmh SE 19.0 mph30.6 kmh 210.49 in7128.0 mb 0.00 in0.0 mm 0.00 in0.0 mm 0.00 in0.0 mm
09:40 PM 74.0°F23.3°C 55.7°F13.2°C 53% 1.0 mph SE1.6 kmh SE 19.0 mph30.6 kmh 210.49 in7128.0 mb 0.00 in0.0 mm 0.00 in0.0 mm 0.00 in0.0 mm
09:45 PM 73.0°F22.8°C 54.3°F12.4°C 52% 2.0 mph SE3.2 kmh SE 19.0 mph30.6 kmh 210.49 in7128.0 mb 0.00 in0.0 mm 0.00 in0.0 mm 0.00 in0.0 mm
09:50 PM 73.0°F22.8°C 54.3°F12.4°C 52% 1.0 mph SE1.6 kmh SE 19.0 mph30.6 kmh 210.49 in7128.0 mb 0.00 in0.0 mm 0.00 in0.0 mm 0.00 in0.0 mm
09:55 PM 73.0°F22.8°C 54.3°F12.4°C 52% 1.0 mph SSE1.6 kmh SSE 19.0 mph30.6 kmh 210.49 in7128.0 mb 0.00 in0.0 mm 0.00 in0.0 mm 0.00 in0.0 mm
10:00 PM 73.0°F22.8°C 54.3°F12.4°C 52% 1.0 mph ESE1.6 kmh ESE 19.0 mph30.6 kmh 210.50 in7128.4 mb 0.00 in0.0 mm 0.00 in0.0 mm 0.00 in0.0 mm
10:05 PM 73.0°F22.8°C 54.3°F12.4°C 52% 1.0 mph ESE1.6 kmh ESE 19.0 mph30.6 kmh 210.50 in7128.4 mb 0.00 in0.0 mm 0.00 in0.0 mm 0.00 in0.0 mm
10:10 PM 73.0°F22.8°C 54.3°F12.4°C 52% 2.0 mph SE3.2 kmh SE 19.0 mph30.6 kmh 210.49 in7128.0 mb 0.00 in0.0 mm 0.00 in0.0 mm 0.00 in0.0 mm
10:15 PM 73.0°F22.8°C 53.8°F12.1°C 51% Calm Calm 19.0 mph30.6 kmh 210.49 in7128.0 mb 0.00 in0.0 mm 0.00 in0.0 mm 0.00 in0.0 mm
10:20 PM 73.0°F22.8°C 53.8°F12.1°C 51% 1.0 mph SSE1.6 kmh SSE 19.0 mph30.6 kmh 210.49 in7128.0 mb 0.00 in0.0 mm 0.00 in0.0 mm 0.00 in0.0 mm
10:25 PM 72.0°F22.2°C 52.8°F11.6°C 51% 1.0 mph SE1.6 kmh SE 19.0 mph30.6 kmh 210.49 in7128.0 mb 0.00 in0.0 mm 0.00 in0.0 mm 0.00 in0.0 mm
10:30 PM 72.0°F22.2°C 53.4°F11.9°C 52% Calm Calm 19.0 mph30.6 kmh 210.49 in7128.0 mb 0.00 in0.0 mm 0.00 in0.0 mm 0.00 in0.0 mm
10:35 PM 72.0°F22.2°C 53.4°F11.9°C 52% 1.0 mph ESE1.6 kmh ESE 19.0 mph30.6 kmh 210.49 in7128.0 mb 0.00 in0.0 mm 0.00 in0.0 mm 0.00 in0.0 mm
10:40 PM 72.0°F22.2°C 53.4°F11.9°C 52% 2.0 mph ESE3.2 kmh ESE 19.0 mph30.6 kmh 210.50 in7128.4 mb 0.00 in0.0 mm 0.00 in0.0 mm 0.00 in0.0 mm
10:45 PM 72.0°F22.2°C 53.4°F11.9°C 52% Calm Calm 19.0 mph30.6 kmh 210.50 in7128.4 mb 0.00 in0.0 mm 0.00 in0.0 mm 0.00 in0.0 mm
10:50 PM 72.0°F22.2°C 53.4°F11.9°C 52% Calm Calm 19.0 mph30.6 kmh 210.50 in7128.4 mb 0.00 in0.0 mm 0.00 in0.0 mm 0.00 in0.0 mm
10:55 PM 72.0°F22.2°C 53.4°F11.9°C 52% Calm Calm 19.0 mph30.6 kmh 210.50 in7128.4 mb 0.00 in0.0 mm 0.00 in0.0 mm 0.00 in0.0 mm
11:00 PM 72.0°F22.2°C 53.4°F11.9°C 52% 2.0 mph ESE3.2 kmh ESE 19.0 mph30.6 kmh 210.50 in7128.4 mb 0.00 in0.0 mm 0.00 in0.0 mm 0.00 in0.0 mm
11:05 PM 71.0°F21.7°C 52.4°F11.3°C 52% 3.0 mph ESE4.8 kmh ESE 19.0 mph30.6 kmh 210.50 in7128.4 mb 0.00 in0.0 mm 0.00 in0.0 mm 0.00 in0.0 mm
11:10 PM 71.0°F21.7°C 52.4°F11.3°C 52% Calm Calm 19.0 mph30.6 kmh 210.50 in7128.4 mb 0.00 in0.0 mm 0.00 in0.0 mm 0.00 in0.0 mm
11:15 PM 71.0°F21.7°C 51.9°F11.1°C 51% 1.0 mph ESE1.6 kmh ESE 19.0 mph30.6 kmh 210.50 in7128.4 mb 0.00 in0.0 mm 0.00 in0.0 mm 0.00 in0.0 mm
11:20 PM 71.0°F21.7°C 51.9°F11.1°C 51% Calm Calm 19.0 mph30.6 kmh 210.51 in7128.7 mb 0.00 in0.0 mm 0.00 in0.0 mm 0.00 in0.0 mm
11:25 PM 71.0°F21.7°C 52.4°F11.3°C 52% 1.0 mph SE1.6 kmh SE 19.0 mph30.6 kmh 210.51 in7128.7 mb 0.00 in0.0 mm 0.00 in0.0 mm 0.00 in0.0 mm
11:30 PM 71.0°F21.7°C 51.9°F11.1°C 51% 2.0 mph ESE3.2 kmh ESE 19.0 mph30.6 kmh 210.51 in7128.7 mb 0.00 in0.0 mm 0.00 in0.0 mm 0.00 in0.0 mm
11:35 PM 71.0°F21.7°C 51.9°F11.1°C 51% Calm Calm 19.0 mph30.6 kmh 210.51 in7128.7 mb 0.00 in0.0 mm 0.00 in0.0 mm 0.00 in0.0 mm
11:40 PM 71.0°F21.7°C 52.4°F11.3°C 52% Calm Calm 19.0 mph30.6 kmh 210.51 in7128.7 mb 0.00 in0.0 mm 0.00 in0.0 mm 0.00 in0.0 mm
11:45 PM 71.0°F21.7°C 52.4°F11.3°C 52% Calm Calm 19.0 mph30.6 kmh 210.51 in7128.7 mb 0.00 in0.0 mm 0.00 in0.0 mm 0.00 in0.0 mm
11:50 PM 71.0°F21.7°C 51.9°F11.1°C 51% 3.0 mph ESE4.8 kmh ESE 19.0 mph30.6 kmh 210.51 in7128.7 mb 0.00 in0.0 mm 0.00 in0.0 mm 0.00 in0.0 mm
11:55 PM 71.0°F21.7°C 52.4°F11.3°C 52% Calm Calm 19.0 mph30.6 kmh 210.51 in7128.7 mb 0.00 in0.0 mm 0.00 in0.0 mm 0.00 in0.0 mm